地図

経路データ

SID SEASON NUMBER BASIN SUBBASIN NAME ISO_TIME NATURE LAT LON WMO_WIND WMO_PRES WMO_AGENCY TRACK_TYPE DIST2LAND LANDFALL IFLAG USA_AGENCY USA_ATCF_ID USA_LAT USA_LON USA_RECORD USA_STATUS USA_WIND USA_PRES USA_SSHS USA_R34_NE USA_R34_SE USA_R34_SW USA_R34_NW USA_R50_NE USA_R50_SE USA_R50_SW USA_R50_NW USA_R64_NE USA_R64_SE USA_R64_SW USA_R64_NW USA_POCI USA_ROCI USA_RMW USA_EYE TOKYO_LAT TOKYO_LON TOKYO_GRADE TOKYO_WIND TOKYO_PRES TOKYO_R50_DIR TOKYO_R50_LONG TOKYO_R50_SHORT TOKYO_R30_DIR TOKYO_R30_LONG TOKYO_R30_SHORT TOKYO_LAND CMA_LAT CMA_LON CMA_CAT CMA_WIND CMA_PRES HKO_LAT HKO_LON HKO_CAT HKO_WIND HKO_PRES NEWDELHI_LAT NEWDELHI_LON NEWDELHI_GRADE NEWDELHI_WIND NEWDELHI_PRES NEWDELHI_CI NEWDELHI_DP NEWDELHI_POCI REUNION_LAT REUNION_LON REUNION_TYPE REUNION_WIND REUNION_PRES REUNION_TNUM REUNION_CI REUNION_RMW REUNION_R34_NE REUNION_R34_SE REUNION_R34_SW REUNION_R34_NW REUNION_R50_NE REUNION_R50_SE REUNION_R50_SW REUNION_R50_NW REUNION_R64_NE REUNION_R64_SE REUNION_R64_SW REUNION_R64_NW BOM_LAT BOM_LON BOM_TYPE BOM_WIND BOM_PRES BOM_TNUM BOM_CI BOM_RMW BOM_R34_NE BOM_R34_SE BOM_R34_SW BOM_R34_NW BOM_R50_NE BOM_R50_SE BOM_R50_SW BOM_R50_NW BOM_R64_NE BOM_R64_SE BOM_R64_SW BOM_R64_NW BOM_ROCI BOM_POCI BOM_EYE BOM_POS_METHOD BOM_PRES_METHOD NADI_LAT NADI_LON NADI_CAT NADI_WIND NADI_PRES WELLINGTON_LAT WELLINGTON_LON WELLINGTON_WIND WELLINGTON_PRES DS824_LAT DS824_LON DS824_STAGE DS824_WIND DS824_PRES TD9636_LAT TD9636_LON TD9636_STAGE TD9636_WIND TD9636_PRES TD9635_LAT TD9635_LON TD9635_WIND TD9635_PRES TD9635_ROCI NEUMANN_LAT NEUMANN_LON NEUMANN_CLASS NEUMANN_WIND NEUMANN_PRES MLC_LAT MLC_LON MLC_CLASS MLC_WIND MLC_PRES USA_GUST BOM_GUST BOM_GUST_PER REUNION_GUST REUNION_GUST_PER USA_SEAHGT USA_SEARAD_NE USA_SEARAD_SE USA_SEARAD_SW USA_SEARAD_NW STORM_SPEED STORM_DIR
1880271N23317 1880 24 NA NA NOT_NAMED 1880-09-27 00:00:00 TS 23.2000 -43.5000 50 hurdat_atl main 2238 2214 O_____________ hurdat_atl AL081880 23.2000 -43.5000 TS 50 0 9 270
1880271N23317 1880 24 NA NA NOT_NAMED 1880-09-27 03:00:00 TS 23.2002 -43.9800 main 2214 2192 P_____________ AL081880 23.2002 -43.9800 TS 50 0 9 270
1880271N23317 1880 24 NA NA NOT_NAMED 1880-09-27 06:00:00 TS 23.2000 -44.5000 50 hurdat_atl main 2192 2167 O_____________ hurdat_atl AL081880 23.2000 -44.5000 TS 50 0 10 270
1880271N23317 1880 24 NA NA NOT_NAMED 1880-09-27 09:00:00 TS 23.1999 -45.0850 main 2167 2134 P_____________ AL081880 23.1999 -45.0850 TS 50 0 11 270
1880271N23317 1880 24 NA NA NOT_NAMED 1880-09-27 12:00:00 TS 23.2000 -45.7000 50 hurdat_atl main 2134 2074 O_____________ hurdat_atl AL081880 23.2000 -45.7000 TS 50 0 11 270
1880271N23317 1880 24 NA NA NOT_NAMED 1880-09-27 15:00:00 TS 23.1999 -46.3150 main 2074 2014 P_____________ AL081880 23.1999 -46.3150 TS 50 0 11 270
1880271N23317 1880 24 NA NA NOT_NAMED 1880-09-27 18:00:00 TS 23.2000 -46.9000 50 hurdat_atl main 2014 1964 O_____________ hurdat_atl AL081880 23.2000 -46.9000 TS 50 0 10 270
1880271N23317 1880 24 NA NA NOT_NAMED 1880-09-27 21:00:00 TS 23.1995 -47.3925 main 1964 1914 P_____________ AL081880 23.1995 -47.3925 TS 55 0 9 270
1880271N23317 1880 24 NA NA NOT_NAMED 1880-09-28 00:00:00 TS 23.2000 -47.9000 60 hurdat_atl main 1914 1854 O_____________ hurdat_atl AL081880 23.2000 -47.9000 TS 60 0 10 270
1880271N23317 1880 24 NA NA NOT_NAMED 1880-09-28 03:00:00 TS 23.2000 -48.5275 main 1854 1785 P_____________ AL081880 23.2000 -48.5275 TS 60 0 12 270
1880271N23317 1880 24 NA NA NOT_NAMED 1880-09-28 06:00:00 TS 23.2000 -49.2000 60 hurdat_atl main 1785 1726 O_____________ hurdat_atl AL081880 23.2000 -49.2000 TS 60 0 12 269
1880271N23317 1880 24 NA NA NOT_NAMED 1880-09-28 09:00:00 TS 23.1846 -49.8427 main 1726 1657 P_____________ AL081880 23.1846 -49.8427 TS 60 0 12 270
1880271N23317 1880 24 NA NA NOT_NAMED 1880-09-28 12:00:00 TS 23.2000 -50.5000 60 hurdat_atl main 1657 1592 O_____________ hurdat_atl AL081880 23.2000 -50.5000 TS 60 0 13 275
1880271N23317 1880 24 NA NA NOT_NAMED 1880-09-28 15:00:00 TS 23.2924 -51.1997 main 1592 1527 P_____________ AL081880 23.2924 -51.1997 TS 60 0 13 279
1880271N23317 1880 24 NA NA NOT_NAMED 1880-09-28 18:00:00 TS 23.4000 -51.9000 60 hurdat_atl main 1527 1470 O_____________ hurdat_atl AL081880 23.4000 -51.9000 TS 60 0 13 277
1880271N23317 1880 24 NA NA NOT_NAMED 1880-09-28 21:00:00 TS 23.4496 -52.5578 main 1460 1407 P_____________ AL081880 23.4496 -52.5578 TS 65 1 12 275
1880271N23317 1880 24 NA NA NOT_NAMED 1880-09-29 00:00:00 TS 23.5000 -53.2000 70 hurdat_atl main 1407 1354 O_____________ hurdat_atl AL081880 23.5000 -53.2000 HU 70 1 12 276
1880271N23317 1880 24 NA NA NOT_NAMED 1880-09-29 03:00:00 TS 23.5848 -53.8576 main 1345 1294 P_____________ AL081880 23.5848 -53.8576 HU 70 1 12 280
1880271N23317 1880 24 NA NA NOT_NAMED 1880-09-29 06:00:00 TS 23.7000 -54.5000 70 hurdat_atl main 1294 1244 O_____________ hurdat_atl AL081880 23.7000 -54.5000 HU 70 1 12 283
1880271N23317 1880 24 NA NA NOT_NAMED 1880-09-29 09:00:00 TS 23.8498 -55.1224 main 1244 1201 P_____________ AL081880 23.8498 -55.1224 HU 75 1 11 285
1880271N23317 1880 24 NA NA NOT_NAMED 1880-09-29 12:00:00 TS 24.0000 -55.7000 80 hurdat_atl main 1201 1163 O_____________ hurdat_atl AL081880 24.0000 -55.7000 HU 80 1 10 284
1880271N23317 1880 24 NA NA NOT_NAMED 1880-09-29 15:00:00 TS 24.0922 -56.2154 main 1163 1126 P_____________ AL081880 24.0922 -56.2154 HU 80 1 9 282
1880271N23317 1880 24 NA NA NOT_NAMED 1880-09-29 18:00:00 TS 24.2000 -56.7000 80 hurdat_atl main 1126 1097 O_____________ hurdat_atl AL081880 24.2000 -56.7000 HU 80 1 9 288
1880271N23317 1880 24 NA NA NOT_NAMED 1880-09-29 21:00:00 TS 24.3923 -57.1999 main 1097 1071 P_____________ AL081880 24.3923 -57.1999 HU 85 2 10 294
1880271N23317 1880 24 NA NA NOT_NAMED 1880-09-30 00:00:00 TS 24.6000 -57.7000 90 hurdat_atl main 1071 1039 O_____________ hurdat_atl AL081880 24.6000 -57.7000 HU 90 2 10 292
1880271N23317 1880 24 NA NA NOT_NAMED 1880-09-30 03:00:00 TS 24.7573 -58.2002 main 1046 1017 P_____________ AL081880 24.7573 -58.2002 HU 90 2 10 288
1880271N23317 1880 24 NA NA NOT_NAMED 1880-09-30 06:00:00 TS 24.9000 -58.7000 90 hurdat_atl main 1017 990 O_____________ hurdat_atl AL081880 24.9000 -58.7000 HU 90 2 10 287
1880271N23317 1880 24 NA NA NOT_NAMED 1880-09-30 09:00:00 TS 25.0351 -59.2301 main 990 971 P_____________ AL081880 25.0351 -59.2301 HU 95 2 10 288
1880271N23317 1880 24 NA NA NOT_NAMED 1880-09-30 12:00:00 TS 25.2000 -59.7000 100 hurdat_atl main 973 967 O_____________ hurdat_atl AL081880 25.2000 -59.7000 HU 100 3 8 299
1880271N23317 1880 24 NA NA NOT_NAMED 1880-09-30 15:00:00 TS 25.4422 -60.0301 main 972 972 P_____________ AL081880 25.4422 -60.0301 HU 100 3 7 313
1880271N23317 1880 24 NA NA NOT_NAMED 1880-09-30 18:00:00 TS 25.7000 -60.3000 100 hurdat_atl main 981 979 O_____________ hurdat_atl AL081880 25.7000 -60.3000 HU 100 3 7 312
1880271N23317 1880 24 NA NA NOT_NAMED 1880-09-30 21:00:00 TS 25.9074 -60.6002 main 983 982 P_____________ AL081880 25.9074 -60.6002 HU 105 3 7 307
1880271N23317 1880 24 NA NA NOT_NAMED 1880-10-01 00:00:00 TS 26.1000 -60.9000 110 hurdat_atl main 987 982 O_____________ hurdat_atl AL081880 26.1000 -60.9000 HU 110 3 7 305
1880271N23317 1880 24 NA NA NOT_NAMED 1880-10-01 03:00:00 TS 26.2925 -61.2076 main 992 987 P_____________ AL081880 26.2925 -61.2076 HU 110 3 7 307
1880271N23317 1880 24 NA NA NOT_NAMED 1880-10-01 06:00:00 TS 26.5000 -61.5000 110 hurdat_atl main 998 998 O_____________ hurdat_atl AL081880 26.5000 -61.5000 HU 110 3 7 313
1880271N23317 1880 24 NA NA NOT_NAMED 1880-10-01 09:00:00 TS 26.7574 -61.7650 main 1016 1016 P_____________ AL081880 26.7574 -61.7650 HU 115 4 7 318
1880271N23317 1880 24 NA NA NOT_NAMED 1880-10-01 12:00:00 TS 27.0000 -62.0000 120 hurdat_atl main 1029 1029 O_____________ hurdat_atl AL081880 27.0000 -62.0000 HU 120 4 6 316
1880271N23317 1880 24 NA NA NOT_NAMED 1880-10-01 15:00:00 TS 27.1649 -62.2077 main 1043 1040 P_____________ AL081880 27.1649 -62.2077 HU 120 4 5 310
1880271N23317 1880 24 NA NA NOT_NAMED 1880-10-01 18:00:00 TS 27.3000 -62.4000 120 hurdat_atl main 1047 1044 O_____________ hurdat_atl AL081880 27.3000 -62.4000 HU 120 4 4 309
1880271N23317 1880 24 NA NA NOT_NAMED 1880-10-01 21:00:00 TS 27.4424 -62.5926 main 1051 1051 P_____________ AL081880 27.4424 -62.5926 HU 120 4 5 310
1880271N23317 1880 24 NA NA NOT_NAMED 1880-10-02 00:00:00 TS 27.6000 -62.8000 120 hurdat_atl main 1067 1059 O_____________ hurdat_atl AL081880 27.6000 -62.8000 HU 120 4 4 288
1880271N23317 1880 24 NA NA NOT_NAMED 1880-10-02 03:00:00 TS 27.5784 -63.0668 main 1059 1054 P_____________ AL081880 27.8000 -63.0499 HU 120 4 5 280
1880271N23317 1880 24 NA NA NOT_NAMED 1880-10-02 06:00:00 TS 27.6800 -63.3200 120 928 hurdat_atl main 1065 1063 O____________O hurdat_atl AL081880 28.0000 -63.3000 HU 120 928 4 26.4000 -63.4000 MH 120 928 4 300
1880271N23317 1880 24 NA NA NOT_NAMED 1880-10-02 09:00:00 TS 27.7762 -63.4557 main 1072 1072 P____________P AL081880 28.1048 -63.4783 HU 120 928 4 26.8875 -63.3525 MH 120 936 4 326
1880271N23317 1880 24 NA NA NOT_NAMED 1880-10-02 12:00:00 TS 28.0000 -63.5667 120 928 hurdat_atl main 1092 1092 O____________O hurdat_atl AL081880 28.3000 -63.7000 HU 120 928 4 27.4000 -63.3000 MH 120 945 8 333
1880271N23317 1880 24 NA NA NOT_NAMED 1880-10-02 15:00:00 TS 28.4620 -63.8530 main 1142 1142 P____________P AL081880 28.7180 -64.1582 HU 120 4 27.9500 -63.2426 MH 120 11 337
1880271N23317 1880 24 NA NA NOT_NAMED 1880-10-02 18:00:00 TS 29.0333 -64.0667 120 hurdat_atl main 1194 1194 O____________O hurdat_atl AL081880 29.3000 -64.5000 HU 120 4 28.5000 -63.2000 MH 120 12 350
1880271N23317 1880 24 NA NA NOT_NAMED 1880-10-02 21:00:00 TS 29.6107 -64.0940 main 1260 1245 P____________P AL081880 29.9615 -64.4865 HU 115 4 28.9093 -63.3089 MH 117 13 10
1880271N23317 1880 24 NA NA NOT_NAMED 1880-10-03 00:00:00 TS 30.3000 -63.8000 110 hurdat_atl main 1247 1243 O____________O hurdat_atl AL081880 30.7000 -64.1000 HU 110 3 29.5000 -63.2000 MH 115 18 29
1880271N23317 1880 24 NA NA NOT_NAMED 1880-10-03 03:00:00 TS 31.1659 -63.1128 main 1255 1255 P____________P AL081880 31.4572 -63.4001 HU 110 3 30.5833 -62.5381 MH 112 23 39
1880271N23317 1880 24 NA NA NOT_NAMED 1880-10-03 06:00:00 TS 32.0667 -62.1333 110 hurdat_atl main 1277 1243 O____________O hurdat_atl AL081880 32.2000 -62.4000 HU 110 3 31.8000 -61.6000 MH 110 24 46
1880271N23317 1880 24 NA NA NOT_NAMED 1880-10-03 09:00:00 TS 32.8647 -61.0530 main 1235 1200 P____________P AL081880 32.9042 -61.1940 HU 105 3 32.7857 -60.7710 MH 107 24 51
1880271N23317 1880 24 NA NA NOT_NAMED 1880-10-03 12:00:00 TS 33.5667 -59.9333 100 hurdat_atl main 1196 1168 O____________O hurdat_atl AL081880 33.5000 -60.0000 HU 100 3 33.7000 -59.8000 MH 105 22 53
1880271N23317 1880 24 NA NA NOT_NAMED 1880-10-03 15:00:00 TS 34.1880 -58.9088 main 1172 1162 P____________P AL081880 33.9434 -59.1151 HU 100 3 34.6772 -58.4962 MH 102 20 55
1880271N23317 1880 24 NA NA NOT_NAMED 1880-10-03 18:00:00 TS 34.7000 -58.0000 100 hurdat_atl main 1162 1153 O____________O hurdat_atl AL081880 34.3000 -58.4000 HU 100 3 35.5000 -57.2000 MH 100 17 56
1880271N23317 1880 24 NA NA NOT_NAMED 1880-10-03 21:00:00 TS 35.1169 -57.2487 main 1163 1149 P____________P AL081880 34.6487 -57.7559 HU 95 2 36.0534 -56.2343 MH 97 14 57
1880271N23317 1880 24 NA NA NOT_NAMED 1880-10-04 00:00:00 TS 35.4667 -56.5667 90 hurdat_atl main 1143 1133 O____________O hurdat_atl AL081880 35.0000 -57.1000 HU 90 2 36.4000 -55.5000 HU 95 14 59
1880271N23317 1880 24 NA NA NOT_NAMED 1880-10-04 03:00:00 TS 35.8125 -55.8038 main 1136 1126 P____________P AL081880 35.4004 -56.2578 HU 90 2 36.6366 -54.8959 HU 95 14 61
1880271N23317 1880 24 NA NA NOT_NAMED 1880-10-04 06:00:00 TS 36.1333 -55.0667 90 hurdat_atl main 1130 1119 O____________O hurdat_atl AL081880 35.8000 -55.4000 HU 90 2 36.8000 -54.4000 HU 95 13 61
1880271N23317 1880 24 NA NA NOT_NAMED 1880-10-04 09:00:00 TS 36.4351 -54.4147 main 1128 1090 P____________P AL081880 36.1340 -54.6831 HU 85 2 37.0374 -53.8779 HU 95 12 58
1880271N23317 1880 24 NA NA NOT_NAMED 1880-10-04 12:00:00 TS 36.7800 -53.7600 80 hurdat_atl main 1090 1056 O____________O hurdat_atl AL081880 36.5000 -54.0000 HU 80 1 37.2000 -53.4000 HU 95 12 58
1880271N23317 1880 24 NA NA NOT_NAMED 1880-10-04 15:00:00 TS 37.0855 -53.1313 main 1056 1045 P____________P AL081880 36.9688 -53.2705 HU 80 1 37.2021 -52.9922 HU 95 11 65
1880271N23317 1880 24 NA NA NOT_NAMED 1880-10-04 18:00:00 TS 37.2333 -52.5667 80 hurdat_atl main 1046 1046 O____________O hurdat_atl AL081880 37.5000 -52.5000 HU 80 1 37.1000 -52.6000 HU 95 8 97
1880271N23317 1880 24 NA NA NOT_NAMED 1880-10-04 21:00:00 TS 36.9803 -52.1198 main 1071 1071 _____________P AL081880 HU -1 36.9803 -52.1198 HU 95 8 122
1880271N23317 1880 24 NA NA NOT_NAMED 1880-10-05 00:00:00 TS 36.8000 -51.7000 main 1097 1097 _____________O 36.8000 -51.7000 HU 95 7 129
1880271N23317 1880 24 NA NA NOT_NAMED 1880-10-05 03:00:00 TS 36.5647 -51.4703 main 1121 1121 _____________P 36.5647 -51.4703 HU 95 6 147
1880271N23317 1880 24 NA NA NOT_NAMED 1880-10-05 06:00:00 TS 36.3000 -51.3000 main 1156 1156 _____________O 36.3000 -51.3000 HU 95 6 147
1880271N23317 1880 24 NA NA NOT_NAMED 1880-10-05 09:00:00 TS 36.0575 -51.0577 main 1180 1180 _____________P 36.0575 -51.0577 HU 95 6 141
1880271N23317 1880 24 NA NA NOT_NAMED 1880-10-05 12:00:00 TS 35.8000 -50.8000 main 1217 1217 _____________O 35.8000 -50.8000 HU 95 7 144
1880271N23317 1880 24 NA NA NOT_NAMED 1880-10-05 15:00:00 TS 35.5000 -50.5500 main 1253 1253 _____________P 35.4999 -50.5500 HU 95 7 146
1880271N23317 1880 24 NA NA NOT_NAMED 1880-10-05 18:00:00 TS 35.2000 -50.3000 main 1291 1291 _____________O 35.2000 -50.3000 HU 95 7 144
1880271N23317 1880 24 NA NA NOT_NAMED 1880-10-05 21:00:00 TS 34.9573 -50.0655 main 1316 1316 _____________P 34.9573 -50.0655 HU 95 6 141
1880271N23317 1880 24 NA NA NOT_NAMED 1880-10-06 00:00:00 TS 34.7000 -49.8000 main 1354 1354 _____________O 34.7000 -49.8000 HU 95 8 141
1880271N23317 1880 24 NA NA NOT_NAMED 1880-10-06 03:00:00 TS 34.3575 -49.4649 main 1392 1392 _____________P 34.3575 -49.4649 HU 95 9 140
1880271N23317 1880 24 NA NA NOT_NAMED 1880-10-06 06:00:00 TS 34.0000 -49.1000 main 1443 1443 _____________O 34.0000 -49.1000 HU 95 9 138
1880271N23317 1880 24 NA NA NOT_NAMED 1880-10-06 09:00:00 TS 33.6999 -48.7504 main 1482 1482 _____________P 33.6999 -48.7504 HU 95 8 136
1880271N23317 1880 24 NA NA NOT_NAMED 1880-10-06 12:00:00 TS 33.4000 -48.4000 main 1523 1523 _____________O 33.4000 -48.4000 HU 95 9 138
1880271N23317 1880 24 NA NA NOT_NAMED 1880-10-06 15:00:00 TS 33.0499 -48.0501 main 1573 1573 _____________P 33.0499 -48.0501 HU 95 9 140
1880271N23317 1880 24 NA NA NOT_NAMED 1880-10-06 18:00:00 TS 32.7000 -47.7000 main 1615 1615 _____________O 32.7000 -47.7000 HU 95 9 140
1880271N23317 1880 24 NA NA NOT_NAMED 1880-10-06 21:00:00 TS 32.3698 -47.3652 main 1655 1655 _____________P 32.3698 -47.3652 HU 95 8 135
1880271N23317 1880 24 NA NA NOT_NAMED 1880-10-07 00:00:00 TS 32.1000 -47.0000 main 1697 1697 _____________O 32.1000 -47.0000 HU 95 8 124
1880271N23317 1880 24 NA NA NOT_NAMED 1880-10-07 03:00:00 TS 31.9200 -46.5652 main 1730 1730 _____________P 31.9200 -46.5652 HU 95 8 111
1880271N23317 1880 24 NA NA NOT_NAMED 1880-10-07 06:00:00 TS 31.8000 -46.1000 main 1754 1754 _____________O 31.8000 -46.1000 HU 95 8 108
1880271N23317 1880 24 NA NA NOT_NAMED 1880-10-07 09:00:00 TS 31.6623 -45.6498 main 1780 1780 _____________P 31.6623 -45.6498 HU 95 8 105
1880271N23317 1880 24 NA NA NOT_NAMED 1880-10-07 12:00:00 TS 31.6000 -45.2000 main 1803 1803 _____________O 31.6000 -45.2000 HU 95 8 89
1880271N23317 1880 24 NA NA NOT_NAMED 1880-10-07 15:00:00 TS 31.6698 -44.7578 main 1806 1806 _____________P 31.6698 -44.7578 HU 92 8 75
1880271N23317 1880 24 NA NA NOT_NAMED 1880-10-07 18:00:00 TS 31.8000 -44.3000 main 1813 1813 _____________O 31.8000 -44.3000 HU 90 9 76
1880271N23317 1880 24 NA NA NOT_NAMED 1880-10-07 21:00:00 TS 31.8776 -43.7847 main 1821 1821 _____________P 31.8776 -43.7847 HU 90 9 77
1880271N23317 1880 24 NA NA NOT_NAMED 1880-10-08 00:00:00 TS 32.0000 -43.3000 main 1830 1821 _____________O 32.0000 -43.3000 HU 90 8 64
1880271N23317 1880 24 NA NA NOT_NAMED 1880-10-08 03:00:00 TS 32.2272 -42.9200 main 1826 1804 _____________P 32.2272 -42.9200 HU 90 8 50
1880271N23317 1880 24 NA NA NOT_NAMED 1880-10-08 06:00:00 TS 32.5000 -42.6000 main 1808 1797 _____________O 32.5000 -42.6000 HU 90 7 46
1880271N23317 1880 24 NA NA NOT_NAMED 1880-10-08 09:00:00 TS 32.7424 -42.2922 main 1801 1785 _____________P 32.7424 -42.2922 HU 90 7 45
1880271N23317 1880 24 NA NA NOT_NAMED 1880-10-08 12:00:00 TS 33.0000 -42.0000 main 1785 1769 _____________O 33.0000 -42.0000 HU 90 8 42
1880271N23317 1880 24 NA NA NOT_NAMED 1880-10-08 15:00:00 TS 33.3000 -41.6925 main 1769 1754 _____________P 33.3000 -41.6925 HU 90 8 40
1880271N23317 1880 24 NA NA NOT_NAMED 1880-10-08 18:00:00 TS 33.6000 -41.4000 main 1754 1745 _____________O 33.6000 -41.4000 HU 90 7 43
1880271N23317 1880 24 NA NA NOT_NAMED 1880-10-08 21:00:00 TS 33.8125 -41.1271 main 1750 1731 _____________P 33.8125 -41.1271 HU 90 7 40
1880271N23317 1880 24 NA NA NOT_NAMED 1880-10-09 00:00:00 TS 34.1000 -40.9000 main 1731 1690 _____________O 34.1000 -40.9000 HU 90 9 22
1880271N23317 1880 24 NA NA NOT_NAMED 1880-10-09 03:00:00 TS 34.6124 -40.7423 main 1695 1645 _____________P 34.6124 -40.7423 HU 90 11 13
1880271N23317 1880 24 NA NA NOT_NAMED 1880-10-09 06:00:00 TS 35.2000 -40.6000 main 1645 1611 _____________O 35.2000 -40.6000 HU 90 11 14
1880271N23317 1880 24 NA NA NOT_NAMED 1880-10-09 09:00:00 TS 35.7000 -40.4073 main 1611 1579 _____________P 35.7000 -40.4073 HU 90 11 18
1880271N23317 1880 24 NA NA NOT_NAMED 1880-10-09 12:00:00 TS 36.2000 -40.2000 main 1579 1547 _____________O 36.2000 -40.2000 HU 90 11 17
1880271N23317 1880 24 NA NA NOT_NAMED 1880-10-09 15:00:00 TS 36.7500 -39.9998 main 1547 1509 _____________P 36.7500 -39.9998 HU 90 11 16
1880271N23317 1880 24 NA NA NOT_NAMED 1880-10-09 18:00:00 TS 37.3000 -39.8000 main 1509 1488 _____________O 37.3000 -39.8000 HU 90 10 18
1880271N23317 1880 24 NA NA NOT_NAMED 1880-10-09 21:00:00 TS 37.7100 -39.5988 main 1488 1454 _____________P 37.7100 -39.5988 HU 90 11 18
1880271N23317 1880 24 NA NA NOT_NAMED 1880-10-10 00:00:00 TS 38.3000 -39.4000 main 1454 1390 _____________O 38.3000 -39.4000 HU 90 17 11
1880271N23317 1880 24 NA NA NOT_NAMED 1880-10-10 03:00:00 TS 39.3601 -39.1931 main 1383 1319 _____________P 39.3601 -39.1931 HU 92 23 8
1880271N23317 1880 24 NA NA NOT_NAMED 1880-10-10 06:00:00 TS 40.6000 -39.0000 main 1313 1257 _____________O 40.6000 -39.0000 HU 95 24 6
1880271N23317 1880 24 NA NA NOT_NAMED 1880-10-10 09:00:00 TS 41.7074 -38.8487 main 1258 1208 _____________P 41.7074 -38.8487 HU 95 22 6
1880271N23317 1880 24 NA NA NOT_NAMED 1880-10-10 12:00:00 TS 42.8000 -38.7000 main 1202 1164 _____________O 42.8000 -38.7000 HU 95 955 22 7
1880271N23317 1880 24 NA NA NOT_NAMED 1880-10-10 15:00:00 TS 43.9000 -38.5001 main 1159 1131 _____________P 43.9000 -38.5001 HU 95 22 7
1880271N23317 1880 24 NA NA NOT_NAMED 1880-10-10 18:00:00 TS 45.0000 -38.3000 main 1127 1103 _____________O 45.0000 -38.3000 HU 95 22 7
1880271N23317 1880 24 NA NA NOT_NAMED 1880-10-10 21:00:00 TS 46.1000 -38.1381 main 1108 1092 _____________P 46.1000 -38.1381 HU 90 22 5
1880271N23317 1880 24 NA NA NOT_NAMED 1880-10-11 00:00:00 ET 47.2000 -38.0000 main 1094 _____________O 47.2000 -38.0000 EX 85 22 5

IBTrACS Databaseについて

本データベースは、米国NOAAが公開する1842年以降の世界の熱帯低気圧のベストトラックデータアーカイブInternational Best Track Archive for Climate Stewardship (IBTrACS)を、ウェブで閲覧しやすい形式に変換したものです。

最終更新日:2021-10-25